createdAt,value
2023-08-27T00:00:02.263Z,1.90
2023-08-27T00:02:32.678Z,1.88
2023-08-27T00:05:03.229Z,2.03
2023-08-27T00:07:33.544Z,1.63
2023-08-27T00:10:06.626Z,1.75
2023-08-27T00:12:37.016Z,1.67
2023-08-27T00:15:08.266Z,2.00
2023-08-27T00:17:39.146Z,1.50
2023-08-27T00:20:12.057Z,2.13
2023-08-27T00:22:42.347Z,2.00
2023-08-27T00:25:15.438Z,2.30
2023-08-27T00:27:45.775Z,2.22
2023-08-27T00:30:16.689Z,2.60
2023-08-27T00:32:47.078Z,2.40
2023-08-27T00:35:17.610Z,2.50
2023-08-27T00:37:47.926Z,2.95
2023-08-27T00:40:21.115Z,3.30
2023-08-27T00:42:51.562Z,3.10
2023-08-27T00:45:22.104Z,2.97
2023-08-27T00:47:52.978Z,2.90
2023-08-27T00:50:24.418Z,2.70
2023-08-27T00:52:55.296Z,2.88
2023-08-27T00:55:28.445Z,2.63
2023-08-27T00:57:59.116Z,2.80
2023-08-27T01:00:30.630Z,3.05
2023-08-27T01:03:01.280Z,2.90
2023-08-27T01:05:32.364Z,3.10
2023-08-27T01:08:09.299Z,2.78
2023-08-27T01:10:53.984Z,2.67
2023-08-27T01:13:35.339Z,2.80
2023-08-27T01:16:07.163Z,3.15
2023-08-27T01:18:39.611Z,3.05
2023-08-27T01:21:28.927Z,2.90
2023-08-27T01:23:59.436Z,3.30
2023-08-27T01:26:35.920Z,2.30
2023-08-27T01:29:15.345Z,2.67
2023-08-27T01:31:54.280Z,2.88
2023-08-27T01:34:27.184Z,2.40
2023-08-27T01:37:01.063Z,2.63
2023-08-27T01:39:31.425Z,2.67
2023-08-27T01:42:01.834Z,2.88
2023-08-27T01:44:32.260Z,2.97
2023-08-27T01:47:02.791Z,2.90
2023-08-27T01:49:33.123Z,2.70
2023-08-27T01:52:06.103Z,2.25
2023-08-27T01:54:37.401Z,2.95
2023-08-27T01:57:08.654Z,3.20
2023-08-27T01:59:39.228Z,2.63
2023-08-27T02:02:09.633Z,3.03
2023-08-27T02:04:40.062Z,2.45
2023-08-27T02:07:13.417Z,2.75
2023-08-27T02:09:43.714Z,2.80
2023-08-27T02:12:14.076Z,3.00
2023-08-27T02:14:44.805Z,3.00
2023-08-27T02:17:15.139Z,2.58
2023-08-27T02:19:45.629Z,2.88
2023-08-27T02:22:18.536Z,3.08
2023-08-27T02:24:48.859Z,2.90
2023-08-27T02:27:19.186Z,2.90
2023-08-27T02:29:49.483Z,2.22
2023-08-27T02:32:19.791Z,2.30
2023-08-27T02:34:50.400Z,2.70
2023-08-27T02:37:23.307Z,2.90
2023-08-27T02:39:53.622Z,2.40
2023-08-27T02:42:23.924Z,2.60
2023-08-27T02:44:54.290Z,2.15
2023-08-27T02:47:24.640Z,2.47
2023-08-27T02:49:55.146Z,2.20
2023-08-27T02:52:28.015Z,2.33
2023-08-27T02:54:58.302Z,2.58
2023-08-27T02:57:28.628Z,2.20
2023-08-27T02:59:58.924Z,2.20
2023-08-27T03:02:31.146Z,2.25
2023-08-27T03:05:06.054Z,2.13
2023-08-27T03:07:39.000Z,2.33
2023-08-27T03:10:11.463Z,2.00
2023-08-27T03:12:41.751Z,2.50
2023-08-27T03:15:14.194Z,2.20
2023-08-27T03:17:44.543Z,2.05
2023-08-27T03:20:15.604Z,2.63
2023-08-27T03:22:48.552Z,2.30
2023-08-27T03:25:19.066Z,2.33
2023-08-27T03:27:49.380Z,1.70
2023-08-27T03:30:19.721Z,1.90
2023-08-27T03:32:50.092Z,1.77
2023-08-27T03:35:20.623Z,2.10
2023-08-27T03:37:53.556Z,1.67
2023-08-27T03:40:24.410Z,1.85
2023-08-27T03:42:54.759Z,1.80
2023-08-27T03:45:25.063Z,1.55
2023-08-27T03:47:55.395Z,1.75
2023-08-27T03:50:25.714Z,1.73
2023-08-27T03:52:58.801Z,1.58
2023-08-27T03:55:30.261Z,1.75
2023-08-27T03:58:00.900Z,1.50
2023-08-27T04:00:31.283Z,1.52
2023-08-27T04:03:01.963Z,1.77
2023-08-27T04:05:32.777Z,1.80
2023-08-27T04:08:05.936Z,1.63
2023-08-27T04:10:36.318Z,1.85
2023-08-27T04:13:07.239Z,1.48
2023-08-27T04:15:37.608Z,1.70
2023-08-27T04:18:08.675Z,1.60
2023-08-27T04:20:39.395Z,2.10
2023-08-27T04:23:12.355Z,1.70
2023-08-27T04:25:42.645Z,1.50
2023-08-27T04:28:12.984Z,1.60
2023-08-27T04:30:43.423Z,1.52
2023-08-27T04:33:14.198Z,1.95
2023-08-27T04:35:45.605Z,1.55
2023-08-27T04:38:18.765Z,1.95
2023-08-27T04:40:54.672Z,2.08
2023-08-27T04:43:25.292Z,1.73
2023-08-27T04:45:56.092Z,1.83
2023-08-27T04:48:26.645Z,2.05
2023-08-27T04:50:57.055Z,2.50
2023-08-27T04:53:30.963Z,1.95
2023-08-27T04:56:01.399Z,1.92
2023-08-27T04:58:31.720Z,1.92
2023-08-27T05:01:02.162Z,1.90
2023-08-27T05:03:32.500Z,2.13
2023-08-27T05:06:03.170Z,2.30
2023-08-27T05:08:36.201Z,1.92
2023-08-27T05:11:06.466Z,1.85
2023-08-27T05:13:36.813Z,2.92
2023-08-27T05:16:07.152Z,2.30
2023-08-27T05:18:37.533Z,2.22
2023-08-27T05:21:07.958Z,1.98
2023-08-27T05:23:40.870Z,2.40
2023-08-27T05:26:11.184Z,2.13
2023-08-27T05:28:41.517Z,2.13
2023-08-27T05:31:12.018Z,2.38
2023-08-27T05:33:42.382Z,2.20
2023-08-27T05:36:12.763Z,2.15
2023-08-27T05:38:45.793Z,1.92
2023-08-27T05:41:16.078Z,2.35
2023-08-27T05:43:46.888Z,2.30
2023-08-27T05:46:17.237Z,2.03
2023-08-27T05:48:47.597Z,2.30
2023-08-27T05:51:17.918Z,2.10
2023-08-27T05:53:50.871Z,2.10
2023-08-27T05:56:21.190Z,2.30
2023-08-27T05:58:52.073Z,2.10
2023-08-27T06:01:22.848Z,2.42
2023-08-27T06:03:53.326Z,2.40
2023-08-27T06:06:23.729Z,2.33
2023-08-27T06:08:56.711Z,2.30
2023-08-27T06:11:27.059Z,1.92
2023-08-27T06:13:57.566Z,2.47
2023-08-27T06:16:28.071Z,2.20
2023-08-27T06:18:58.394Z,2.20
2023-08-27T06:21:29.007Z,2.00
2023-08-27T06:24:01.909Z,1.80
2023-08-27T06:26:32.198Z,2.40
2023-08-27T06:29:02.670Z,1.88
2023-08-27T06:31:33.387Z,1.85
2023-08-27T06:34:03.719Z,1.60
2023-08-27T06:36:34.259Z,2.00
2023-08-27T06:39:07.732Z,1.90
2023-08-27T06:41:38.613Z,2.40
2023-08-27T06:44:10.100Z,2.00
2023-08-27T06:46:40.416Z,1.75
2023-08-27T06:49:10.753Z,2.10
2023-08-27T06:51:41.189Z,2.08
2023-08-27T06:54:15.331Z,2.00
2023-08-27T06:56:45.761Z,1.58
2023-08-27T06:59:16.548Z,2.22
2023-08-27T07:01:46.955Z,1.70
2023-08-27T07:04:17.505Z,2.08
2023-08-27T07:06:47.794Z,2.13
2023-08-27T07:09:20.728Z,1.80
2023-08-27T07:11:51.011Z,1.90
2023-08-27T07:14:21.378Z,2.15
2023-08-27T07:16:51.715Z,2.00
2023-08-27T07:19:22.048Z,1.90
2023-08-27T07:21:52.363Z,1.60
2023-08-27T07:24:25.295Z,1.80
2023-08-27T07:26:55.600Z,1.60
2023-08-27T07:29:25.952Z,1.70
2023-08-27T07:31:56.234Z,1.58
2023-08-27T07:34:26.626Z,1.70
2023-08-27T07:36:58.273Z,1.65
2023-08-27T07:39:31.229Z,1.35
2023-08-27T07:42:01.579Z,1.33
2023-08-27T07:44:31.883Z,1.20
2023-08-27T07:47:02.174Z,1.17
2023-08-27T07:49:32.605Z,1.15
2023-08-27T07:52:02.962Z,1.45
2023-08-27T07:54:35.945Z,1.33
2023-08-27T07:57:06.617Z,1.38
2023-08-27T07:59:37.021Z,1.45
2023-08-27T08:02:07.854Z,1.40
2023-08-27T08:04:38.435Z,1.33
2023-08-27T08:07:08.818Z,1.30
2023-08-27T08:09:41.827Z,1.20
2023-08-27T08:12:12.264Z,1.05
2023-08-27T08:14:42.718Z,1.60
2023-08-27T08:17:13.501Z,1.20
2023-08-27T08:19:44.058Z,1.05
2023-08-27T08:22:14.584Z,0.95
2023-08-27T08:24:48.141Z,0.90
2023-08-27T08:27:19.150Z,0.60
2023-08-27T08:29:49.568Z,1.00
2023-08-27T08:32:19.888Z,0.93
2023-08-27T08:34:50.307Z,0.80
2023-08-27T08:37:20.624Z,1.20
2023-08-27T08:39:54.038Z,0.93
2023-08-27T08:42:34.305Z,1.02
2023-08-27T08:45:17.553Z,1.30
2023-08-27T08:47:48.715Z,1.00
2023-08-27T08:50:21.143Z,1.30
2023-08-27T08:52:54.228Z,1.67
2023-08-27T08:55:29.209Z,1.73
2023-08-27T08:58:06.696Z,1.00
2023-08-27T09:00:38.878Z,0.77
2023-08-27T09:03:09.479Z,0.90
2023-08-27T09:05:41.936Z,0.60
2023-08-27T09:08:14.347Z,0.80
2023-08-27T09:10:47.434Z,0.90
2023-08-27T09:13:23.414Z,0.60
2023-08-27T09:15:54.485Z,0.40
2023-08-27T09:18:24.911Z,0.40
2023-08-27T09:20:55.389Z,0.52
2023-08-27T09:23:25.822Z,0.73
2023-08-27T09:26:00.710Z,0.50
2023-08-27T09:28:31.016Z,0.80
2023-08-27T09:31:04.096Z,0.60
2023-08-27T09:33:41.778Z,0.70
2023-08-27T09:36:13.955Z,0.60
2023-08-27T09:38:48.441Z,0.50
2023-08-27T09:41:22.356Z,0.47
2023-08-27T09:43:56.643Z,0.30
2023-08-27T09:46:28.208Z,0.47
2023-08-27T09:49:06.025Z,0.38
2023-08-27T09:51:37.289Z,0.50
2023-08-27T09:54:18.861Z,0.50
2023-08-27T09:56:53.712Z,0.60
2023-08-27T09:59:24.097Z,0.68
2023-08-27T10:01:55.720Z,0.50
2023-08-27T10:04:26.586Z,0.57
2023-08-27T10:06:57.002Z,0.60
2023-08-27T10:09:27.291Z,0.60
2023-08-27T10:12:01.501Z,0.45
2023-08-27T10:14:32.782Z,0.60
2023-08-27T10:17:04.696Z,0.60
2023-08-27T10:19:35.503Z,0.50
2023-08-27T10:22:06.762Z,0.50
2023-08-27T10:24:38.117Z,0.70
2023-08-27T10:27:11.232Z,0.50
2023-08-27T10:29:42.557Z,0.60
2023-08-27T10:32:12.914Z,0.40
2023-08-27T10:34:43.394Z,0.45
2023-08-27T10:37:15.816Z,0.40
2023-08-27T10:39:47.090Z,0.40
2023-08-27T10:42:38.010Z,0.40
2023-08-27T10:45:19.607Z,0.32
2023-08-27T10:48:11.724Z,0.52
2023-08-27T10:50:50.559Z,0.30
2023-08-27T10:53:22.561Z,0.60
2023-08-27T10:55:55.049Z,0.55
2023-08-27T10:58:29.689Z,0.40
2023-08-27T11:01:11.542Z,0.50
2023-08-27T11:04:01.938Z,0.40
2023-08-27T11:06:46.429Z,0.47
2023-08-27T11:09:23.926Z,0.52
2023-08-27T11:11:57.454Z,0.60
2023-08-27T11:14:30.705Z,0.47
2023-08-27T11:17:04.908Z,0.43
2023-08-27T11:19:36.904Z,0.50
2023-08-27T11:22:13.981Z,0.70
2023-08-27T11:24:46.345Z,0.45
2023-08-27T11:27:20.448Z,0.50
2023-08-27T11:29:55.800Z,0.20
2023-08-27T11:32:26.202Z,0.55
2023-08-27T11:34:57.388Z,0.50
2023-08-27T11:37:35.779Z,0.57
2023-08-27T11:40:08.047Z,0.50
2023-08-27T11:42:38.597Z,0.60
2023-08-27T11:45:12.819Z,0.30
2023-08-27T11:47:45.476Z,0.40
2023-08-27T11:50:16.618Z,0.40
2023-08-27T11:52:46.995Z,0.38
2023-08-27T11:55:24.341Z,0.30
2023-08-27T11:57:56.936Z,0.45
2023-08-27T12:00:30.873Z,0.30
2023-08-27T12:03:02.669Z,0.35
2023-08-27T12:05:34.761Z,0.50
2023-08-27T12:08:10.389Z,0.30
2023-08-27T12:10:47.528Z,0.40
2023-08-27T12:13:18.226Z,0.40
2023-08-27T12:15:51.204Z,0.40
2023-08-27T12:18:21.510Z,0.20
2023-08-27T12:20:53.043Z,0.22
2023-08-27T12:23:23.450Z,0.40
2023-08-27T12:25:55.813Z,0.30
2023-08-27T12:28:29.069Z,0.15
2023-08-27T12:31:02.427Z,0.50
2023-08-27T12:33:42.464Z,0.40
2023-08-27T12:36:13.060Z,0.30
2023-08-27T12:38:43.395Z,0.30
2023-08-27T12:41:13.689Z,0.28
2023-08-27T12:43:44.095Z,0.30
2023-08-27T12:46:17.129Z,0.35
2023-08-27T12:48:49.183Z,0.38
2023-08-27T12:51:19.817Z,0.30
2023-08-27T12:53:50.217Z,0.30
2023-08-27T12:56:20.535Z,0.30
2023-08-27T12:58:50.824Z,0.30
2023-08-27T13:01:23.807Z,0.30
2023-08-27T13:03:54.265Z,0.50
2023-08-27T13:06:24.728Z,0.30
2023-08-27T13:08:55.100Z,0.40
2023-08-27T13:11:25.448Z,0.30
2023-08-27T13:13:56.527Z,0.50
2023-08-27T13:16:30.336Z,0.40
2023-08-27T13:19:01.048Z,0.77
2023-08-27T13:21:31.372Z,0.50
2023-08-27T13:24:04.936Z,0.60
2023-08-27T13:26:35.470Z,0.60
2023-08-27T13:29:06.075Z,0.68
2023-08-27T13:31:39.401Z,0.50
2023-08-27T13:34:10.022Z,0.50
2023-08-27T13:36:40.374Z,0.60
2023-08-27T13:39:10.847Z,0.40
2023-08-27T13:41:41.222Z,0.60
2023-08-27T13:44:11.669Z,1.00
2023-08-27T13:46:44.680Z,0.60
2023-08-27T13:49:14.991Z,0.75
2023-08-27T13:51:45.314Z,0.63
2023-08-27T13:54:15.678Z,0.70
2023-08-27T13:56:46.008Z,0.70
2023-08-27T13:59:16.343Z,0.63
2023-08-27T14:01:50.284Z,0.50
2023-08-27T14:04:20.720Z,0.80
2023-08-27T14:06:51.398Z,0.70
2023-08-27T14:09:21.693Z,0.68
2023-08-27T14:11:52.231Z,0.68
2023-08-27T14:14:22.543Z,0.75
2023-08-27T14:16:55.569Z,0.60
2023-08-27T14:19:25.909Z,0.50
2023-08-27T14:21:56.215Z,0.77
2023-08-27T14:24:26.591Z,0.77
2023-08-27T14:26:56.921Z,0.73
2023-08-27T14:29:27.281Z,0.50
2023-08-27T14:32:04.530Z,1.00
2023-08-27T14:34:35.047Z,1.25
2023-08-27T14:37:05.707Z,0.70
2023-08-27T14:39:37.800Z,0.90
2023-08-27T14:42:09.595Z,1.10
2023-08-27T14:44:39.935Z,0.73
2023-08-27T14:47:13.085Z,0.90
2023-08-27T14:49:43.525Z,0.70
2023-08-27T14:52:14.049Z,0.82
2023-08-27T14:54:45.771Z,0.75
2023-08-27T14:57:16.108Z,0.80
2023-08-27T14:59:48.504Z,1.08
2023-08-27T15:02:21.525Z,0.90
2023-08-27T15:04:52.026Z,0.90
2023-08-27T15:07:23.384Z,0.90
2023-08-27T15:09:54.190Z,0.77
2023-08-27T15:12:25.236Z,0.70
2023-08-27T15:14:55.609Z,0.70
2023-08-27T15:17:28.566Z,0.90
2023-08-27T15:19:58.938Z,0.80
2023-08-27T15:22:29.280Z,0.73
2023-08-27T15:24:59.575Z,0.90
2023-08-27T15:27:29.891Z,1.00
2023-08-27T15:30:00.538Z,0.98
2023-08-27T15:32:33.503Z,0.98
2023-08-27T15:35:05.690Z,0.70
2023-08-27T15:37:36.171Z,0.75
2023-08-27T15:40:07.800Z,0.90
2023-08-27T15:42:38.139Z,0.90
2023-08-27T15:45:10.400Z,0.73
2023-08-27T15:47:43.625Z,0.70
2023-08-27T15:50:14.255Z,0.60
2023-08-27T15:52:44.604Z,0.70
2023-08-27T15:55:14.878Z,0.75
2023-08-27T15:57:45.175Z,0.88
2023-08-27T16:00:17.174Z,0.80
2023-08-27T16:02:50.341Z,0.70
2023-08-27T16:05:20.731Z,0.80
2023-08-27T16:07:51.057Z,0.73
2023-08-27T16:10:21.709Z,0.80
2023-08-27T16:12:52.067Z,0.80
2023-08-27T16:15:22.461Z,0.82
2023-08-27T16:17:55.533Z,0.60
2023-08-27T16:20:26.059Z,0.70
2023-08-27T16:22:56.406Z,0.70
2023-08-27T16:25:27.360Z,0.75
2023-08-27T16:27:57.692Z,0.68
2023-08-27T16:30:28.038Z,0.63
2023-08-27T16:33:01.251Z,0.75
2023-08-27T16:35:31.876Z,0.68
2023-08-27T16:38:03.124Z,0.50
2023-08-27T16:40:39.556Z,0.80
2023-08-27T16:43:10.818Z,0.70
2023-08-27T16:45:41.285Z,0.70
2023-08-27T16:48:14.232Z,0.70
2023-08-27T16:50:44.534Z,0.70
2023-08-27T16:53:14.887Z,0.52
2023-08-27T16:55:45.940Z,0.63
2023-08-27T16:58:16.532Z,0.90
2023-08-27T17:00:48.665Z,0.77
2023-08-27T17:03:22.549Z,0.80
2023-08-27T17:06:01.530Z,0.90
2023-08-27T17:08:31.903Z,0.60
2023-08-27T17:11:03.273Z,0.60
2023-08-27T17:13:35.993Z,1.00
2023-08-27T17:16:06.507Z,0.90
2023-08-27T17:18:39.821Z,0.90
2023-08-27T17:21:10.141Z,0.75
2023-08-27T17:23:40.456Z,0.70
2023-08-27T17:26:10.761Z,0.80
2023-08-27T17:28:41.098Z,0.70
2023-08-27T17:31:11.466Z,0.85
2023-08-27T17:33:44.392Z,0.95
2023-08-27T17:36:14.747Z,1.15
2023-08-27T17:38:45.256Z,0.80
2023-08-27T17:41:15.613Z,0.80
2023-08-27T17:43:45.991Z,0.85
2023-08-27T17:46:16.319Z,1.10
2023-08-27T17:48:49.325Z,0.77
2023-08-27T17:51:19.632Z,0.98
2023-08-27T17:53:49.977Z,0.88
2023-08-27T17:56:20.256Z,0.93
2023-08-27T17:58:50.921Z,0.88
2023-08-27T18:01:21.290Z,0.85
2023-08-27T18:03:54.227Z,0.93
2023-08-27T18:06:24.587Z,1.20
2023-08-27T18:08:55.037Z,1.00
2023-08-27T18:11:25.342Z,1.30
2023-08-27T18:13:56.096Z,1.00
2023-08-27T18:16:26.550Z,0.98
2023-08-27T18:18:59.795Z,0.90
2023-08-27T18:21:30.312Z,0.90
2023-08-27T18:24:00.640Z,1.30
2023-08-27T18:26:30.970Z,1.10
2023-08-27T18:29:01.300Z,1.15
2023-08-27T18:31:31.603Z,0.95
2023-08-27T18:34:04.603Z,1.02
2023-08-27T18:36:34.870Z,1.00
2023-08-27T18:39:05.215Z,1.00
2023-08-27T18:41:37.424Z,0.90
2023-08-27T18:44:08.899Z,0.93
2023-08-27T18:46:40.336Z,1.05
2023-08-27T18:49:13.458Z,1.10
2023-08-27T18:51:43.741Z,0.75
2023-08-27T18:54:14.141Z,0.93
2023-08-27T18:56:44.516Z,0.70
2023-08-27T18:59:14.871Z,0.90
2023-08-27T19:01:45.302Z,1.00
2023-08-27T19:04:18.563Z,0.80
2023-08-27T19:06:48.813Z,1.02
2023-08-27T19:09:19.153Z,0.95
2023-08-27T19:11:49.457Z,0.90
2023-08-27T19:14:19.801Z,0.80
2023-08-27T19:16:50.986Z,0.82
2023-08-27T19:19:24.464Z,0.80
2023-08-27T19:21:54.737Z,1.10
2023-08-27T19:24:25.110Z,1.20
2023-08-27T19:26:55.429Z,0.77
2023-08-27T19:29:26.612Z,0.80
2023-08-27T19:31:56.882Z,1.10
2023-08-27T19:34:29.840Z,1.08
2023-08-27T19:37:00.152Z,0.85
2023-08-27T19:39:30.447Z,0.75
2023-08-27T19:42:00.736Z,1.20
2023-08-27T19:44:31.060Z,0.85
2023-08-27T19:47:01.344Z,0.80
2023-08-27T19:49:34.250Z,0.70
2023-08-27T19:52:04.520Z,0.80
2023-08-27T19:54:34.835Z,0.75
2023-08-27T19:57:05.171Z,0.85
2023-08-27T19:59:35.541Z,1.02
2023-08-27T20:02:05.999Z,0.70
2023-08-27T20:04:39.058Z,0.60
2023-08-27T20:07:09.676Z,0.65
2023-08-27T20:09:40.951Z,0.95
2023-08-27T20:12:12.603Z,0.80
2023-08-27T20:14:42.923Z,0.80
2023-08-27T20:17:13.289Z,0.90
2023-08-27T20:19:46.195Z,0.95
2023-08-27T20:22:16.454Z,0.80
2023-08-27T20:24:46.805Z,0.95
2023-08-27T20:27:17.106Z,1.33
2023-08-27T20:29:47.419Z,0.80
2023-08-27T20:32:17.710Z,0.70
2023-08-27T20:34:50.656Z,0.85
2023-08-27T20:37:21.109Z,0.70
2023-08-27T20:39:51.685Z,0.70
2023-08-27T20:42:21.950Z,0.70
2023-08-27T20:44:52.360Z,0.70
2023-08-27T20:47:22.721Z,0.70
2023-08-27T20:49:56.063Z,0.88
2023-08-27T20:52:26.434Z,0.70
2023-08-27T20:54:56.918Z,0.70
2023-08-27T20:57:28.294Z,0.80
2023-08-27T20:59:59.078Z,0.80
2023-08-27T21:02:29.493Z,0.68
2023-08-27T21:05:03.010Z,0.80
2023-08-27T21:07:33.330Z,1.00
2023-08-27T21:10:04.205Z,0.80
2023-08-27T21:12:34.703Z,0.82
2023-08-27T21:15:05.091Z,0.70
2023-08-27T21:17:35.438Z,1.00
2023-08-27T21:20:10.403Z,0.90
2023-08-27T21:22:40.684Z,0.75
2023-08-27T21:25:12.365Z,0.90
2023-08-27T21:27:42.727Z,0.90
2023-08-27T21:30:15.224Z,0.80
2023-08-27T21:32:45.580Z,1.08
2023-08-27T21:35:18.629Z,0.80
2023-08-27T21:37:48.920Z,1.13
2023-08-27T21:40:19.460Z,0.90
2023-08-27T21:42:49.760Z,0.82
2023-08-27T21:45:20.326Z,0.90
2023-08-27T21:47:50.620Z,0.90
2023-08-27T21:50:23.592Z,0.90
2023-08-27T21:52:54.089Z,0.80
2023-08-27T21:55:24.482Z,1.10
2023-08-27T21:57:56.795Z,0.80
2023-08-27T22:00:28.362Z,0.90
2023-08-27T22:02:59.187Z,1.00
2023-08-27T22:05:32.315Z,0.95
2023-08-27T22:08:02.668Z,1.10
2023-08-27T22:10:33.559Z,1.35
2023-08-27T22:13:04.412Z,1.05
2023-08-27T22:15:35.335Z,1.10
2023-08-27T22:18:05.804Z,1.23
2023-08-27T22:20:38.757Z,0.93
2023-08-27T22:23:09.021Z,1.20
2023-08-27T22:25:39.422Z,1.25
2023-08-27T22:28:09.993Z,1.00
2023-08-27T22:30:40.738Z,1.38
2023-08-27T22:33:11.316Z,1.33
2023-08-27T22:35:44.280Z,1.25
2023-08-27T22:38:14.552Z,1.40
2023-08-27T22:40:44.825Z,1.30
2023-08-27T22:43:15.140Z,1.20
2023-08-27T22:45:46.300Z,1.60
2023-08-27T22:48:16.567Z,1.77
2023-08-27T22:50:49.484Z,2.35
2023-08-27T22:53:19.758Z,2.00
2023-08-27T22:55:51.388Z,2.20
2023-08-27T22:58:21.728Z,2.45
2023-08-27T23:00:52.378Z,2.10
2023-08-27T23:03:22.771Z,1.90
2023-08-27T23:05:55.734Z,2.00
2023-08-27T23:08:26.547Z,1.67
2023-08-27T23:10:56.940Z,1.73
2023-08-27T23:13:27.472Z,1.70
2023-08-27T23:15:57.933Z,2.15
2023-08-27T23:18:28.273Z,1.70
2023-08-27T23:21:01.166Z,1.65
2023-08-27T23:23:31.705Z,1.85
2023-08-27T23:26:02.083Z,1.70
2023-08-27T23:28:32.392Z,1.75
2023-08-27T23:31:03.339Z,1.70
2023-08-27T23:33:33.844Z,1.77
2023-08-27T23:36:06.993Z,1.67
2023-08-27T23:38:37.423Z,1.80
2023-08-27T23:41:07.819Z,1.70
2023-08-27T23:43:38.155Z,2.20
2023-08-27T23:46:08.503Z,2.15
2023-08-27T23:48:38.787Z,2.17
2023-08-27T23:51:11.719Z,2.30
2023-08-27T23:53:42.001Z,2.10
2023-08-27T23:56:12.367Z,1.85
2023-08-27T23:58:42.682Z,2.30
